sensor_id;sensor_type;location;lat;lon;timestamp;temperature;humidity
71096;DHT22;58753;49.440;11.126;2023-02-04T00:01:14;5.97;77.60
71096;DHT22;58753;49.440;11.126;2023-02-04T00:03:40;5.94;77.88
71096;DHT22;58753;49.440;11.126;2023-02-04T00:06:05;5.97;78.04
71096;DHT22;58753;49.440;11.126;2023-02-04T00:08:30;6.01;78.20
71096;DHT22;58753;49.440;11.126;2023-02-04T00:10:56;5.97;78.04
71096;DHT22;58753;49.440;11.126;2023-02-04T00:13:21;5.91;78.08
71096;DHT22;58753;49.440;11.126;2023-02-04T00:15:47;5.97;78.62
71096;DHT22;58753;49.440;11.126;2023-02-04T00:18:12;6.00;78.33
71096;DHT22;58753;49.440;11.126;2023-02-04T00:20:37;5.97;78.54
71096;DHT22;58753;49.440;11.126;2023-02-04T00:23:03;5.95;78.64
71096;DHT22;58753;49.440;11.126;2023-02-04T00:25:28;5.94;78.51
71096;DHT22;58753;49.440;11.126;2023-02-04T00:27:53;5.90;78.75
71096;DHT22;58753;49.440;11.126;2023-02-04T00:30:19;5.95;78.68
71096;DHT22;58753;49.440;11.126;2023-02-04T00:32:44;5.98;78.80
71096;DHT22;58753;49.440;11.126;2023-02-04T00:35:10;6.00;78.72
71096;DHT22;58753;49.440;11.126;2023-02-04T00:37:35;6.05;78.62
71096;DHT22;58753;49.440;11.126;2023-02-04T00:40:00;6.02;78.28
71096;DHT22;58753;49.440;11.126;2023-02-04T00:42:26;6.05;78.12
71096;DHT22;58753;49.440;11.126;2023-02-04T00:44:52;5.98;78.16
71096;DHT22;58753;49.440;11.126;2023-02-04T00:47:17;5.97;77.91
71096;DHT22;58753;49.440;11.126;2023-02-04T00:49:43;5.89;77.98
71096;DHT22;58753;49.440;11.126;2023-02-04T00:52:08;5.91;77.96
71096;DHT22;58753;49.440;11.126;2023-02-04T00:54:34;5.97;77.69
71096;DHT22;58753;49.440;11.126;2023-02-04T00:56:59;5.98;77.54
71096;DHT22;58753;49.440;11.126;2023-02-04T00:59:24;5.93;77.36
71096;DHT22;58753;49.440;11.126;2023-02-04T01:01:50;5.91;77.36
71096;DHT22;58753;49.440;11.126;2023-02-04T01:04:16;5.87;77.30
71096;DHT22;58753;49.440;11.126;2023-02-04T01:06:41;5.91;77.28
71096;DHT22;58753;49.440;11.126;2023-02-04T01:09:06;5.93;77.15
71096;DHT22;58753;49.440;11.126;2023-02-04T01:11:32;5.87;77.10
71096;DHT22;58753;49.440;11.126;2023-02-04T01:13:57;5.84;77.15
71096;DHT22;58753;49.440;11.126;2023-02-04T01:16:23;5.86;77.11
71096;DHT22;58753;49.440;11.126;2023-02-04T01:18:49;5.80;77.14
71096;DHT22;58753;49.440;11.126;2023-02-04T01:21:14;5.75;77.14
71096;DHT22;58753;49.440;11.126;2023-02-04T01:23:40;5.75;77.12
71096;DHT22;58753;49.440;11.126;2023-02-04T01:26:05;5.74;77.14
71096;DHT22;58753;49.440;11.126;2023-02-04T01:28:30;5.73;77.13
71096;DHT22;58753;49.440;11.126;2023-02-04T01:30:56;5.70;77.15
71096;DHT22;58753;49.440;11.126;2023-02-04T01:33:21;5.67;77.21
71096;DHT22;58753;49.440;11.126;2023-02-04T01:35:47;5.69;77.25
71096;DHT22;58753;49.440;11.126;2023-02-04T01:38:12;5.73;77.04
71096;DHT22;58753;49.440;11.126;2023-02-04T01:40:38;5.77;76.73
71096;DHT22;58753;49.440;11.126;2023-02-04T01:43:04;5.77;76.45
71096;DHT22;58753;49.440;11.126;2023-02-04T01:45:30;5.75;76.34
71096;DHT22;58753;49.440;11.126;2023-02-04T01:47:59;5.71;76.28
71096;DHT22;58753;49.440;11.126;2023-02-04T01:50:24;5.67;76.08
71096;DHT22;58753;49.440;11.126;2023-02-04T01:52:50;5.73;75.80
71096;DHT22;58753;49.440;11.126;2023-02-04T01:55:20;5.74;75.66
71096;DHT22;58753;49.440;11.126;2023-02-04T01:57:49;5.73;75.46
71096;DHT22;58753;49.440;11.126;2023-02-04T02:00:17;5.67;75.36
71096;DHT22;58753;49.440;11.126;2023-02-04T02:02:51;5.71;75.15
71096;DHT22;58753;49.440;11.126;2023-02-04T02:05:20;5.75;74.88
71096;DHT22;58753;49.440;11.126;2023-02-04T02:07:50;5.73;74.60
71096;DHT22;58753;49.440;11.126;2023-02-04T02:10:17;5.77;74.37
71096;DHT22;58753;49.440;11.126;2023-02-04T02:12:44;5.73;74.08
71096;DHT22;58753;49.440;11.126;2023-02-04T02:15:11;5.74;73.68
71096;DHT22;58753;49.440;11.126;2023-02-04T02:17:38;5.77;72.81
71096;DHT22;58753;49.440;11.126;2023-02-04T02:20:11;5.74;72.47
71096;DHT22;58753;49.440;11.126;2023-02-04T02:25:12;5.81;71.24
71096;DHT22;58753;49.440;11.126;2023-02-04T02:27:38;5.74;71.07
71096;DHT22;58753;49.440;11.126;2023-02-04T02:30:05;5.71;70.74
71096;DHT22;58753;49.440;11.126;2023-02-04T02:32:32;5.69;70.76
71096;DHT22;58753;49.440;11.126;2023-02-04T02:34:57;5.66;70.74
71096;DHT22;58753;49.440;11.126;2023-02-04T02:37:23;5.61;70.90
71096;DHT22;58753;49.440;11.126;2023-02-04T02:39:48;5.66;71.08
71096;DHT22;58753;49.440;11.126;2023-02-04T02:42:16;5.67;71.42
71096;DHT22;58753;49.440;11.126;2023-02-04T02:44:43;5.73;71.73
71096;DHT22;58753;49.440;11.126;2023-02-04T02:47:16;5.67;72.13
71096;DHT22;58753;49.440;11.126;2023-02-04T02:49:46;5.64;72.27
71096;DHT22;58753;49.440;11.126;2023-02-04T02:52:12;5.53;72.66
71096;DHT22;58753;49.440;11.126;2023-02-04T02:54:39;5.47;73.08
71096;DHT22;58753;49.440;11.126;2023-02-04T02:57:18;5.51;73.44
71096;DHT22;58753;49.440;11.126;2023-02-04T02:59:44;5.50;73.43
71096;DHT22;58753;49.440;11.126;2023-02-04T03:02:11;5.46;73.60
71096;DHT22;58753;49.440;11.126;2023-02-04T03:04:41;5.47;73.61
71096;DHT22;58753;49.440;11.126;2023-02-04T03:07:07;5.51;73.35
71096;DHT22;58753;49.440;11.126;2023-02-04T03:09:33;5.50;73.11
71096;DHT22;58753;49.440;11.126;2023-02-04T03:12:00;5.51;72.68
71096;DHT22;58753;49.440;11.126;2023-02-04T03:14:26;5.47;72.35
71096;DHT22;58753;49.440;11.126;2023-02-04T03:16:53;5.50;72.07
71096;DHT22;58753;49.440;11.126;2023-02-04T03:19:19;5.49;71.61
71096;DHT22;58753;49.440;11.126;2023-02-04T03:21:45;5.43;71.44
71096;DHT22;58753;49.440;11.126;2023-02-04T03:24:12;5.42;71.38
71096;DHT22;58753;49.440;11.126;2023-02-04T03:26:37;5.43;71.02
71096;DHT22;58753;49.440;11.126;2023-02-04T03:29:06;5.40;70.81
71096;DHT22;58753;49.440;11.126;2023-02-04T03:31:32;5.39;70.69
71096;DHT22;58753;49.440;11.126;2023-02-04T03:33:57;5.30;70.79
71096;DHT22;58753;49.440;11.126;2023-02-04T03:36:23;5.30;70.89
71096;DHT22;58753;49.440;11.126;2023-02-04T03:38:48;5.32;70.88
71096;DHT22;58753;49.440;11.126;2023-02-04T03:41:16;5.35;70.73
71096;DHT22;58753;49.440;11.126;2023-02-04T03:43:41;5.29;70.82
71096;DHT22;58753;49.440;11.126;2023-02-04T03:46:07;5.29;70.92
71096;DHT22;58753;49.440;11.126;2023-02-04T03:48:32;5.29;71.07
71096;DHT22;58753;49.440;11.126;2023-02-04T03:50:57;5.32;71.02
71096;DHT22;58753;49.440;11.126;2023-02-04T03:53:23;5.30;71.09
71096;DHT22;58753;49.440;11.126;2023-02-04T03:55:48;5.32;71.21
71096;DHT22;58753;49.440;11.126;2023-02-04T03:58:14;5.29;71.29
71096;DHT22;58753;49.440;11.126;2023-02-04T04:00:39;5.22;71.40
71096;DHT22;58753;49.440;11.126;2023-02-04T04:03:04;5.16;71.83
71096;DHT22;58753;49.440;11.126;2023-02-04T04:05:30;5.12;71.95
71096;DHT22;58753;49.440;11.126;2023-02-04T04:07:55;5.13;72.18
71096;DHT22;58753;49.440;11.126;2023-02-04T04:10:21;5.08;72.37
71096;DHT22;58753;49.440;11.126;2023-02-04T04:12:46;5.00;72.63
71096;DHT22;58753;49.440;11.126;2023-02-04T04:15:12;5.05;73.04
71096;DHT22;58753;49.440;11.126;2023-02-04T04:17:37;5.12;73.24
71096;DHT22;58753;49.440;11.126;2023-02-04T04:20:03;5.12;73.53
71096;DHT22;58753;49.440;11.126;2023-02-04T04:22:29;5.05;73.82
71096;DHT22;58753;49.440;11.126;2023-02-04T04:24:54;4.86;74.06
71096;DHT22;58753;49.440;11.126;2023-02-04T04:27:19;4.72;74.53
71096;DHT22;58753;49.440;11.126;2023-02-04T04:29:45;4.69;75.21
71096;DHT22;58753;49.440;11.126;2023-02-04T04:32:10;4.64;75.32
71096;DHT22;58753;49.440;11.126;2023-02-04T04:34:36;4.62;75.93
71096;DHT22;58753;49.440;11.126;2023-02-04T04:37:01;4.75;75.95
71096;DHT22;58753;49.440;11.126;2023-02-04T04:39:27;4.72;76.00
71096;DHT22;58753;49.440;11.126;2023-02-04T04:41:52;4.72;76.23
71096;DHT22;58753;49.440;11.126;2023-02-04T04:44:17;4.78;76.35
71096;DHT22;58753;49.440;11.126;2023-02-04T04:46:43;4.86;76.26
71096;DHT22;58753;49.440;11.126;2023-02-04T04:49:08;4.86;76.17
71096;DHT22;58753;49.440;11.126;2023-02-04T04:51:33;4.96;76.26
71096;DHT22;58753;49.440;11.126;2023-02-04T04:53:59;4.96;76.08
71096;DHT22;58753;49.440;11.126;2023-02-04T04:56:25;4.99;75.96
71096;DHT22;58753;49.440;11.126;2023-02-04T04:58:50;5.00;76.06
71096;DHT22;58753;49.440;11.126;2023-02-04T05:01:15;5.00;76.03
71096;DHT22;58753;49.440;11.126;2023-02-04T05:03:41;5.02;75.98
71096;DHT22;58753;49.440;11.126;2023-02-04T05:06:06;5.02;76.04
71096;DHT22;58753;49.440;11.126;2023-02-04T05:08:33;4.96;76.09
71096;DHT22;58753;49.440;11.126;2023-02-04T05:11:02;4.85;76.23
71096;DHT22;58753;49.440;11.126;2023-02-04T05:13:28;4.76;76.49
71096;DHT22;58753;49.440;11.126;2023-02-04T05:15:53;4.75;76.60
71096;DHT22;58753;49.440;11.126;2023-02-04T05:18:19;4.68;76.66
71096;DHT22;58753;49.440;11.126;2023-02-04T05:20:44;4.72;76.75
71096;DHT22;58753;49.440;11.126;2023-02-04T05:23:09;4.64;76.82
71096;DHT22;58753;49.440;11.126;2023-02-04T05:25:35;4.60;77.04
71096;DHT22;58753;49.440;11.126;2023-02-04T05:28:00;4.62;77.43
71096;DHT22;58753;49.440;11.126;2023-02-04T05:30:26;4.62;77.30
71096;DHT22;58753;49.440;11.126;2023-02-04T05:32:51;4.67;77.24
71096;DHT22;58753;49.440;11.126;2023-02-04T05:35:17;4.67;77.27
71096;DHT22;58753;49.440;11.126;2023-02-04T05:37:42;4.68;77.27
71096;DHT22;58753;49.440;11.126;2023-02-04T05:40:08;4.64;77.27
71096;DHT22;58753;49.440;11.126;2023-02-04T05:42:33;4.60;77.51
71096;DHT22;58753;49.440;11.126;2023-02-04T05:44:59;4.68;77.63
71096;DHT22;58753;49.440;11.126;2023-02-04T05:47:24;4.69;77.42
71096;DHT22;58753;49.440;11.126;2023-02-04T05:49:50;4.64;77.55
71096;DHT22;58753;49.440;11.126;2023-02-04T05:52:15;4.61;77.79
71096;DHT22;58753;49.440;11.126;2023-02-04T05:54:40;4.64;78.00
71096;DHT22;58753;49.440;11.126;2023-02-04T05:57:06;4.69;78.02
71096;DHT22;58753;49.440;11.126;2023-02-04T05:59:31;4.61;78.16
71096;DHT22;58753;49.440;11.126;2023-02-04T06:01:56;4.57;78.25
71096;DHT22;58753;49.440;11.126;2023-02-04T06:04:22;4.51;78.59
71096;DHT22;58753;49.440;11.126;2023-02-04T06:06:47;4.44;78.74
71096;DHT22;58753;49.440;11.126;2023-02-04T06:09:13;4.38;78.99
71096;DHT22;58753;49.440;11.126;2023-02-04T06:11:38;4.29;79.18
71096;DHT22;58753;49.440;11.126;2023-02-04T06:14:03;4.23;79.40
71096;DHT22;58753;49.440;11.126;2023-02-04T06:16:29;4.23;79.61
71096;DHT22;58753;49.440;11.126;2023-02-04T06:18:54;4.14;79.64
71096;DHT22;58753;49.440;11.126;2023-02-04T06:21:19;4.16;79.93
71096;DHT22;58753;49.440;11.126;2023-02-04T06:23:45;4.09;80.12
71096;DHT22;58753;49.440;11.126;2023-02-04T06:26:10;4.10;80.49
71096;DHT22;58753;49.440;11.126;2023-02-04T06:28:36;4.07;80.73
71096;DHT22;58753;49.440;11.126;2023-02-04T06:31:01;4.00;80.65
71096;DHT22;58753;49.440;11.126;2023-02-04T06:33:27;3.82;80.64
71096;DHT22;58753;49.440;11.126;2023-02-04T06:35:52;3.59;80.93
71096;DHT22;58753;49.440;11.126;2023-02-04T06:38:17;3.35;81.21
71096;DHT22;58753;49.440;11.126;2023-02-04T06:40:44;3.19;81.64
71096;DHT22;58753;49.440;11.126;2023-02-04T06:43:13;3.09;82.04
71096;DHT22;58753;49.440;11.126;2023-02-04T06:45:39;3.04;82.34
71096;DHT22;58753;49.440;11.126;2023-02-04T06:48:04;3.03;82.67
71096;DHT22;58753;49.440;11.126;2023-02-04T06:50:30;3.01;82.80
71096;DHT22;58753;49.440;11.126;2023-02-04T06:52:55;2.97;82.99
71096;DHT22;58753;49.440;11.126;2023-02-04T06:55:20;2.98;83.14
71096;DHT22;58753;49.440;11.126;2023-02-04T06:57:46;2.93;83.29
71096;DHT22;58753;49.440;11.126;2023-02-04T07:00:12;2.91;83.34
71096;DHT22;58753;49.440;11.126;2023-02-04T07:02:37;2.88;83.41
71096;DHT22;58753;49.440;11.126;2023-02-04T07:05:04;2.88;83.57
71096;DHT22;58753;49.440;11.126;2023-02-04T07:07:30;2.90;83.67
71096;DHT22;58753;49.440;11.126;2023-02-04T07:09:56;2.88;83.63
71096;DHT22;58753;49.440;11.126;2023-02-04T07:12:21;2.91;83.60
71096;DHT22;58753;49.440;11.126;2023-02-04T07:14:46;2.90;83.72
71096;DHT22;58753;49.440;11.126;2023-02-04T07:17:12;2.90;83.71
71096;DHT22;58753;49.440;11.126;2023-02-04T07:19:37;2.83;83.34
71096;DHT22;58753;49.440;11.126;2023-02-04T07:22:03;2.81;83.52
71096;DHT22;58753;49.440;11.126;2023-02-04T07:24:29;2.80;83.46
71096;DHT22;58753;49.440;11.126;2023-02-04T07:26:55;2.79;83.65
71096;DHT22;58753;49.440;11.126;2023-02-04T07:29:20;2.79;83.51
71096;DHT22;58753;49.440;11.126;2023-02-04T07:31:46;2.79;83.66
71096;DHT22;58753;49.440;11.126;2023-02-04T07:34:12;2.81;83.78
71096;DHT22;58753;49.440;11.126;2023-02-04T07:36:38;2.84;83.43
71096;DHT22;58753;49.440;11.126;2023-02-04T07:39:04;2.80;83.31
71096;DHT22;58753;49.440;11.126;2023-02-04T07:41:30;2.83;83.62
71096;DHT22;58753;49.440;11.126;2023-02-04T07:43:55;2.88;83.72
71096;DHT22;58753;49.440;11.126;2023-02-04T07:46:20;2.88;83.77
71096;DHT22;58753;49.440;11.126;2023-02-04T07:48:46;2.90;83.72
71096;DHT22;58753;49.440;11.126;2023-02-04T07:51:11;2.91;83.73
71096;DHT22;58753;49.440;11.126;2023-02-04T07:53:36;2.90;83.29
71096;DHT22;58753;49.440;11.126;2023-02-04T07:56:02;2.90;83.42
71096;DHT22;58753;49.440;11.126;2023-02-04T07:58:27;2.90;83.52
71096;DHT22;58753;49.440;11.126;2023-02-04T08:00:52;2.93;83.51
71096;DHT22;58753;49.440;11.126;2023-02-04T08:03:18;2.91;83.31
71096;DHT22;58753;49.440;11.126;2023-02-04T08:05:43;2.95;83.28
71096;DHT22;58753;49.440;11.126;2023-02-04T08:08:08;2.93;83.30
71096;DHT22;58753;49.440;11.126;2023-02-04T08:10:34;2.94;83.26
71096;DHT22;58753;49.440;11.126;2023-02-04T08:12:59;3.00;83.22
71096;DHT22;58753;49.440;11.126;2023-02-04T08:15:25;3.05;83.36
71096;DHT22;58753;49.440;11.126;2023-02-04T08:17:50;3.07;83.28
71096;DHT22;58753;49.440;11.126;2023-02-04T08:20:16;3.11;82.83
71096;DHT22;58753;49.440;11.126;2023-02-04T08:22:42;3.19;82.82
71096;DHT22;58753;49.440;11.126;2023-02-04T08:25:08;3.24;82.85
71096;DHT22;58753;49.440;11.126;2023-02-04T08:27:35;3.36;82.69
71096;DHT22;58753;49.440;11.126;2023-02-04T08:30:00;3.46;82.81
71096;DHT22;58753;49.440;11.126;2023-02-04T08:32:26;3.58;82.83
71096;DHT22;58753;49.440;11.126;2023-02-04T08:34:53;3.75;82.66
71096;DHT22;58753;49.440;11.126;2023-02-04T08:37:19;3.85;81.95
71096;DHT22;58753;49.440;11.126;2023-02-04T08:39:44;3.87;81.91
71096;DHT22;58753;49.440;11.126;2023-02-04T08:42:11;3.94;81.65
71096;DHT22;58753;49.440;11.126;2023-02-04T08:44:37;3.93;81.38
71096;DHT22;58753;49.440;11.126;2023-02-04T08:47:02;3.89;80.79
71096;DHT22;58753;49.440;11.126;2023-02-04T08:49:28;3.85;80.46
71096;DHT22;58753;49.440;11.126;2023-02-04T08:51:53;3.89;80.78
71096;DHT22;58753;49.440;11.126;2023-02-04T08:54:19;3.93;80.74
71096;DHT22;58753;49.440;11.126;2023-02-04T08:56:44;4.02;80.51
71096;DHT22;58753;49.440;11.126;2023-02-04T08:59:09;4.06;80.25
71096;DHT22;58753;49.440;11.126;2023-02-04T09:01:36;4.03;79.81
71096;DHT22;58753;49.440;11.126;2023-02-04T09:04:01;4.04;79.33
71096;DHT22;58753;49.440;11.126;2023-02-04T09:06:26;4.07;79.38
71096;DHT22;58753;49.440;11.126;2023-02-04T09:08:52;4.11;79.13
71096;DHT22;58753;49.440;11.126;2023-02-04T09:11:17;4.00;78.37
71096;DHT22;58753;49.440;11.126;2023-02-04T09:13:42;4.07;78.49
71096;DHT22;58753;49.440;11.126;2023-02-04T09:16:08;4.10;78.44
71096;DHT22;58753;49.440;11.126;2023-02-04T09:18:33;4.21;78.22
71096;DHT22;58753;49.440;11.126;2023-02-04T09:20:59;4.24;77.83
71096;DHT22;58753;49.440;11.126;2023-02-04T09:23:24;4.23;76.94
71096;DHT22;58753;49.440;11.126;2023-02-04T09:25:50;4.18;76.34
71096;DHT22;58753;49.440;11.126;2023-02-04T09:28:16;4.14;75.43
71096;DHT22;58753;49.440;11.126;2023-02-04T09:30:43;4.17;75.97
71096;DHT22;58753;49.440;11.126;2023-02-04T09:33:10;4.21;75.96
71096;DHT22;58753;49.440;11.126;2023-02-04T09:35:36;4.21;75.30
71096;DHT22;58753;49.440;11.126;2023-02-04T09:38:02;4.27;75.16
71096;DHT22;58753;49.440;11.126;2023-02-04T09:40:30;4.24;74.52
71096;DHT22;58753;49.440;11.126;2023-02-04T09:42:59;4.23;74.41
71096;DHT22;58753;49.440;11.126;2023-02-04T09:45:26;4.13;73.56
71096;DHT22;58753;49.440;11.126;2023-02-04T09:47:53;4.07;73.56
71096;DHT22;58753;49.440;11.126;2023-02-04T09:50:21;4.10;73.62
71096;DHT22;58753;49.440;11.126;2023-02-04T09:52:49;4.11;72.95
71096;DHT22;58753;49.440;11.126;2023-02-04T09:55:17;4.11;72.68
71096;DHT22;58753;49.440;11.126;2023-02-04T09:57:43;4.34;72.94
71096;DHT22;58753;49.440;11.126;2023-02-04T10:00:24;4.60;72.73
71096;DHT22;58753;49.440;11.126;2023-02-04T10:02:49;4.75;71.98
71096;DHT22;58753;49.440;11.126;2023-02-04T10:05:20;4.79;71.97
71096;DHT22;58753;49.440;11.126;2023-02-04T10:07:49;4.84;71.77
71096;DHT22;58753;49.440;11.126;2023-02-04T10:10:17;4.81;71.57
71096;DHT22;58753;49.440;11.126;2023-02-04T10:12:43;4.65;70.90
71096;DHT22;58753;49.440;11.126;2023-02-04T10:15:17;4.50;70.53
71096;DHT22;58753;49.440;11.126;2023-02-04T10:17:45;4.45;70.86
71096;DHT22;58753;49.440;11.126;2023-02-04T10:20:22;4.41;70.80
71096;DHT22;58753;49.440;11.126;2023-02-04T10:22:51;4.31;69.98
71096;DHT22;58753;49.440;11.126;2023-02-04T10:25:19;4.36;70.73
71096;DHT22;58753;49.440;11.126;2023-02-04T10:27:59;4.48;70.42
71096;DHT22;58753;49.440;11.126;2023-02-04T10:30:27;4.65;70.46
71096;DHT22;58753;49.440;11.126;2023-02-04T10:32:57;4.85;70.33
71096;DHT22;58753;49.440;11.126;2023-02-04T10:35:23;4.93;70.06
71096;DHT22;58753;49.440;11.126;2023-02-04T10:38:01;4.95;69.18
71096;DHT22;58753;49.440;11.126;2023-02-04T10:40:30;5.05;69.39
71096;DHT22;58753;49.440;11.126;2023-02-04T10:42:56;5.16;69.32
71096;DHT22;58753;49.440;11.126;2023-02-04T10:45:23;5.15;68.47
71096;DHT22;58753;49.440;11.126;2023-02-04T10:47:50;5.09;68.09
71096;DHT22;58753;49.440;11.126;2023-02-04T10:50:18;5.09;67.73
71096;DHT22;58753;49.440;11.126;2023-02-04T10:52:47;5.06;67.91
71096;DHT22;58753;49.440;11.126;2023-02-04T10:55:16;5.02;67.53
71096;DHT22;58753;49.440;11.126;2023-02-04T10:57:43;4.95;67.08
71096;DHT22;58753;49.440;11.126;2023-02-04T11:00:29;4.86;66.95
71096;DHT22;58753;49.440;11.126;2023-02-04T11:03:09;4.92;67.03
71096;DHT22;58753;49.440;11.126;2023-02-04T11:05:36;4.98;66.66
71096;DHT22;58753;49.440;11.126;2023-02-04T11:08:02;5.19;66.96
71096;DHT22;58753;49.440;11.126;2023-02-04T11:10:32;5.39;66.74
71096;DHT22;58753;49.440;11.126;2023-02-04T11:13:04;5.67;66.79
71096;DHT22;58753;49.440;11.126;2023-02-04T11:15:47;5.84;66.13
71096;DHT22;58753;49.440;11.126;2023-02-04T11:20:45;5.94;65.41
71096;DHT22;58753;49.440;11.126;2023-02-04T11:23:30;5.97;64.81
71096;DHT22;58753;49.440;11.126;2023-02-04T11:26:17;5.97;64.50
71096;DHT22;58753;49.440;11.126;2023-02-04T11:36:27;5.44;63.10
71096;DHT22;58753;49.440;11.126;2023-02-04T11:38:52;5.43;63.29
71096;DHT22;58753;49.440;11.126;2023-02-04T11:41:28;5.29;62.91
71096;DHT22;58753;49.440;11.126;2023-02-04T11:43:55;5.22;63.17
71096;DHT22;58753;49.440;11.126;2023-02-04T11:46:22;5.20;63.58
71096;DHT22;58753;49.440;11.126;2023-02-04T11:48:55;5.13;63.06
71096;DHT22;58753;49.440;11.126;2023-02-04T11:51:28;5.09;63.26
71096;DHT22;58753;49.440;11.126;2023-02-04T11:53:54;5.06;62.97
71096;DHT22;58753;49.440;11.126;2023-02-04T11:56:20;5.06;63.11
71096;DHT22;58753;49.440;11.126;2023-02-04T11:58:47;5.00;63.01
71096;DHT22;58753;49.440;11.126;2023-02-04T12:01:32;5.06;63.20
71096;DHT22;58753;49.440;11.126;2023-02-04T12:04:04;5.13;63.34
71096;DHT22;58753;49.440;11.126;2023-02-04T12:06:33;5.16;63.26
71096;DHT22;58753;49.440;11.126;2023-02-04T12:11:50;5.22;63.04
71096;DHT22;58753;49.440;11.126;2023-02-04T12:14:17;5.16;62.38
71096;DHT22;58753;49.440;11.126;2023-02-04T12:16:48;5.05;62.25
71096;DHT22;58753;49.440;11.126;2023-02-04T12:19:16;5.06;62.52
71096;DHT22;58753;49.440;11.126;2023-02-04T12:21:41;5.04;62.57
71096;DHT22;58753;49.440;11.126;2023-02-04T12:24:07;5.09;62.65
71096;DHT22;58753;49.440;11.126;2023-02-04T12:26:32;5.08;62.38
71096;DHT22;58753;49.440;11.126;2023-02-04T12:28:58;5.08;62.55
71096;DHT22;58753;49.440;11.126;2023-02-04T12:31:31;5.12;62.62
71096;DHT22;58753;49.440;11.126;2023-02-04T12:33:57;5.13;62.71
71096;DHT22;58753;49.440;11.126;2023-02-04T12:36:23;5.13;62.67
71096;DHT22;58753;49.440;11.126;2023-02-04T12:38:49;5.12;62.51
71096;DHT22;58753;49.440;11.126;2023-02-04T12:41:14;5.13;62.40
71096;DHT22;58753;49.440;11.126;2023-02-04T12:43:39;5.18;62.70
71096;DHT22;58753;49.440;11.126;2023-02-04T12:46:05;5.25;62.70
71096;DHT22;58753;49.440;11.126;2023-02-04T12:48:30;5.19;62.10
71096;DHT22;58753;49.440;11.126;2023-02-04T12:50:56;5.15;62.00
71096;DHT22;58753;49.440;11.126;2023-02-04T12:53:21;5.22;62.34
71096;DHT22;58753;49.440;11.126;2023-02-04T12:55:47;5.35;62.56
71096;DHT22;58753;49.440;11.126;2023-02-04T12:58:12;5.59;62.13
71096;DHT22;58753;49.440;11.126;2023-02-04T13:00:38;5.63;61.67
71096;DHT22;58753;49.440;11.126;2023-02-04T13:03:03;5.57;60.93
71096;DHT22;58753;49.440;11.126;2023-02-04T13:05:29;5.59;61.49
71096;DHT22;58753;49.440;11.126;2023-02-04T13:07:54;5.59;60.98
71096;DHT22;58753;49.440;11.126;2023-02-04T13:10:20;5.67;61.01
71096;DHT22;58753;49.440;11.126;2023-02-04T13:12:46;5.67;59.65
71096;DHT22;58753;49.440;11.126;2023-02-04T13:15:12;5.63;59.40
71096;DHT22;58753;49.440;11.126;2023-02-04T13:17:37;5.64;58.71
71096;DHT22;58753;49.440;11.126;2023-02-04T13:20:03;5.64;58.23
71096;DHT22;58753;49.440;11.126;2023-02-04T13:22:29;5.61;57.92
71096;DHT22;58753;49.440;11.126;2023-02-04T13:24:54;5.60;57.48
71096;DHT22;58753;49.440;11.126;2023-02-04T13:27:20;5.51;57.25
71096;DHT22;58753;49.440;11.126;2023-02-04T13:29:45;5.49;56.62
71096;DHT22;58753;49.440;11.126;2023-02-04T13:32:11;5.42;56.01
71096;DHT22;58753;49.440;11.126;2023-02-04T13:34:36;5.44;56.28
71096;DHT22;58753;49.440;11.126;2023-02-04T13:37:02;5.44;55.41
71096;DHT22;58753;49.440;11.126;2023-02-04T13:39:27;5.40;55.54
71096;DHT22;58753;49.440;11.126;2023-02-04T13:41:52;5.42;56.03
71096;DHT22;58753;49.440;11.126;2023-02-04T13:44:18;5.54;56.84
71096;DHT22;58753;49.440;11.126;2023-02-04T13:46:43;5.67;56.75
71096;DHT22;58753;49.440;11.126;2023-02-04T13:49:09;5.61;55.56
71096;DHT22;58753;49.440;11.126;2023-02-04T13:51:34;5.59;55.73
71096;DHT22;58753;49.440;11.126;2023-02-04T13:53:59;5.66;56.05
71096;DHT22;58753;49.440;11.126;2023-02-04T13:56:26;5.53;55.12
71096;DHT22;58753;49.440;11.126;2023-02-04T13:58:51;5.47;55.31
71096;DHT22;58753;49.440;11.126;2023-02-04T14:01:17;5.36;54.70
71096;DHT22;58753;49.440;11.126;2023-02-04T14:03:43;5.29;54.86
71096;DHT22;58753;49.440;11.126;2023-02-04T14:06:09;5.23;54.80
71096;DHT22;58753;49.440;11.126;2023-02-04T14:08:34;5.26;55.02
71096;DHT22;58753;49.440;11.126;2023-02-04T14:11:00;5.29;55.27
71096;DHT22;58753;49.440;11.126;2023-02-04T14:13:25;5.30;55.50
71096;DHT22;58753;49.440;11.126;2023-02-04T14:15:51;5.28;55.44
71096;DHT22;58753;49.440;11.126;2023-02-04T14:18:16;5.20;55.78
71096;DHT22;58753;49.440;11.126;2023-02-04T14:20:42;5.23;55.59
71096;DHT22;58753;49.440;11.126;2023-02-04T14:23:08;5.15;55.55
71096;DHT22;58753;49.440;11.126;2023-02-04T14:25:33;5.04;55.66
71096;DHT22;58753;49.440;11.126;2023-02-04T14:27:58;5.11;56.30
71096;DHT22;58753;49.440;11.126;2023-02-04T14:30:26;5.23;56.64
71096;DHT22;58753;49.440;11.126;2023-02-04T14:32:52;5.40;56.77
71096;DHT22;58753;49.440;11.126;2023-02-04T14:35:18;5.61;57.00
71096;DHT22;58753;49.440;11.126;2023-02-04T14:37:43;5.63;56.37
71096;DHT22;58753;49.440;11.126;2023-02-04T14:40:11;5.64;56.48
71096;DHT22;58753;49.440;11.126;2023-02-04T14:42:37;5.53;56.47
71096;DHT22;58753;49.440;11.126;2023-02-04T14:45:07;5.37;56.22
71096;DHT22;58753;49.440;11.126;2023-02-04T14:47:34;5.12;56.18
71096;DHT22;58753;49.440;11.126;2023-02-04T14:49:59;4.85;56.12
71096;DHT22;58753;49.440;11.126;2023-02-04T14:52:25;4.62;56.13
71096;DHT22;58753;49.440;11.126;2023-02-04T14:54:50;4.48;56.46
71096;DHT22;58753;49.440;11.126;2023-02-04T14:57:16;4.40;56.49
71096;DHT22;58753;49.440;11.126;2023-02-04T14:59:41;4.31;56.80
71096;DHT22;58753;49.440;11.126;2023-02-04T15:02:09;4.29;57.18
71096;DHT22;58753;49.440;11.126;2023-02-04T15:04:35;4.30;57.30
71096;DHT22;58753;49.440;11.126;2023-02-04T15:07:00;4.33;57.61
71096;DHT22;58753;49.440;11.126;2023-02-04T15:09:27;4.37;57.86
71096;DHT22;58753;49.440;11.126;2023-02-04T15:11:52;4.38;57.73
71096;DHT22;58753;49.440;11.126;2023-02-04T15:14:18;4.40;57.76
71096;DHT22;58753;49.440;11.126;2023-02-04T15:16:43;4.38;57.75
71096;DHT22;58753;49.440;11.126;2023-02-04T15:19:12;4.30;57.24
71096;DHT22;58753;49.440;11.126;2023-02-04T15:21:38;4.25;57.18
71096;DHT22;58753;49.440;11.126;2023-02-04T15:24:03;4.29;56.99
71096;DHT22;58753;49.440;11.126;2023-02-04T15:26:28;4.24;56.99
71096;DHT22;58753;49.440;11.126;2023-02-04T15:28:54;4.18;56.76
71096;DHT22;58753;49.440;11.126;2023-02-04T15:31:23;4.09;56.80
71096;DHT22;58753;49.440;11.126;2023-02-04T15:33:48;4.02;56.97
71096;DHT22;58753;49.440;11.126;2023-02-04T15:36:14;3.93;57.07
71096;DHT22;58753;49.440;11.126;2023-02-04T15:38:40;3.82;57.26
71096;DHT22;58753;49.440;11.126;2023-02-04T15:41:05;3.76;57.60